Terminal Aerodrome Forecast
Issued by NWS

Home | Current Version | Previous Version | Text Only | Print | Product List | Glossary On
Versions: 1 2 3 4 5 6 7 8 9 10 11 12 13 14 15 16 17 18 19 20
978
FTUS44 KLIX 232320
TAFMSY
TAF
KMSY 232320Z 2400/2424 31005KT P6SM FEW040 SCT060
     FM240900 32010KT P6SM VCSH BKN020 BKN040 PROB30 2409/2412 4SM
      TSRA OVC015CB
     FM241700 30013KT P6SM SCT150=

USA.gov is the U.S. government's official web portal to all federal, state and local government web resources and services.